Gulf Shores, Alabama
Current Conditions -  °F | °C
As of 1:15 PM on Thursday 30 Oct 2014 (Local Time) from KJKA Reporting Station
Clear Clear  
Wind Chill: 72°   Ceiling: Unl
Heat Index: 72°   Visibility: 10mi
Dew Point: 44°   Wind: 7mph
Humidity: 36%   Direction: 20°NNE
Pressure: 30.03"   Gusts: NA
Location:  30.27°N, 87.7°W
Report Text: KJKA 301815Z AUTO 02006KT 10SM CLR 22/07 A3003 RMK AO2 T02220066
Loading
Personal Weather Stations






























Interactive Weather Map New forecast layout! Learn more

10-Day Weather Forecast

Advertisements
Track Severe Weather on mobile